createdAt,value
2022-09-02T00:01:20.163Z,31.61
2022-09-02T00:03:47.194Z,31.62
2022-09-02T00:06:14.463Z,31.63
2022-09-02T00:08:41.959Z,31.56
2022-09-02T00:11:12.931Z,31.57
2022-09-02T00:13:39.431Z,31.66
2022-09-02T00:16:06.467Z,31.72
2022-09-02T00:18:33.744Z,31.42
2022-09-02T00:21:00.475Z,31.35
2022-09-02T00:23:27.483Z,31.45
2022-09-02T00:25:53.992Z,31.57
2022-09-02T00:28:20.699Z,31.51
2022-09-02T00:30:48.295Z,31.56
2022-09-02T00:33:15.274Z,31.63
2022-09-02T00:35:42.927Z,31.64
2022-09-02T00:38:10.015Z,31.58
2022-09-02T00:40:37.593Z,31.62
2022-09-02T00:43:08.126Z,31.47
2022-09-02T00:45:36.139Z,31.61
2022-09-02T00:48:02.870Z,31.55
2022-09-02T00:50:34.192Z,31.63
2022-09-02T00:53:06.311Z,31.76
2022-09-02T00:55:45.008Z,31.44
2022-09-02T00:58:43.054Z,31.82
2022-09-02T01:01:11.762Z,31.42
2022-09-02T01:03:40.045Z,31.60
2022-09-02T01:06:07.243Z,31.62
2022-09-02T01:08:36.604Z,31.47
2022-09-02T01:11:06.341Z,31.88
2022-09-02T01:13:39.527Z,31.63
2022-09-02T01:16:16.746Z,31.50
2022-09-02T01:18:47.511Z,31.59
2022-09-02T01:21:14.086Z,31.50
2022-09-02T01:23:40.851Z,31.71
2022-09-02T01:26:09.577Z,31.52
2022-09-02T01:28:36.322Z,31.76
2022-09-02T01:31:02.953Z,31.59
2022-09-02T01:33:30.115Z,31.99
2022-09-02T01:35:58.613Z,31.77
2022-09-02T01:38:26.955Z,31.48
2022-09-02T01:40:53.528Z,31.65
2022-09-02T01:43:24.909Z,31.44
2022-09-02T01:45:54.236Z,31.62
2022-09-02T01:48:21.796Z,31.50
2022-09-02T01:51:07.174Z,31.49
2022-09-02T01:53:33.891Z,31.82
2022-09-02T01:56:00.669Z,31.83
2022-09-02T01:58:27.124Z,31.50
2022-09-02T02:00:53.614Z,31.45
2022-09-02T02:03:20.307Z,31.41
2022-09-02T02:05:47.524Z,31.44
2022-09-02T02:08:14.020Z,31.60
2022-09-02T02:10:42.834Z,31.53
2022-09-02T02:13:09.765Z,31.49
2022-09-02T02:15:43.914Z,31.64
2022-09-02T02:18:11.583Z,31.30
2022-09-02T02:20:38.673Z,31.73
2022-09-02T02:23:06.322Z,31.51
2022-09-02T02:25:32.925Z,31.32
2022-09-02T02:27:59.443Z,31.23
2022-09-02T02:30:26.270Z,31.74
2022-09-02T02:32:52.769Z,31.62
2022-09-02T02:35:20.827Z,31.39
2022-09-02T02:37:49.396Z,31.38
2022-09-02T02:40:22.745Z,31.54
2022-09-02T02:42:49.859Z,31.40
2022-09-02T02:45:16.470Z,31.39
2022-09-02T02:47:45.945Z,31.40
2022-09-02T02:50:15.814Z,31.47
2022-09-02T02:52:43.540Z,31.35
2022-09-02T02:55:12.135Z,31.33
2022-09-02T02:57:39.798Z,31.22
2022-09-02T03:00:12.511Z,31.47
2022-09-02T03:02:39.573Z,31.50
2022-09-02T03:05:07.630Z,31.21
2022-09-02T03:07:34.958Z,31.61
2022-09-02T03:10:08.230Z,31.70
2022-09-02T03:12:36.724Z,31.54
2022-09-02T03:15:04.710Z,31.47
2022-09-02T03:17:31.227Z,31.74
2022-09-02T03:19:59.110Z,31.65
2022-09-02T03:22:27.027Z,31.59
2022-09-02T03:24:53.575Z,31.55
2022-09-02T03:27:20.097Z,31.51
2022-09-02T03:29:46.544Z,31.39
2022-09-02T03:32:13.059Z,31.37
2022-09-02T03:34:41.789Z,31.50
2022-09-02T03:37:08.458Z,31.51
2022-09-02T03:39:37.093Z,31.67
2022-09-02T03:42:03.623Z,31.79
2022-09-02T03:44:34.212Z,31.72
2022-09-02T03:47:01.369Z,31.35
2022-09-02T03:49:28.659Z,31.55
2022-09-02T03:51:55.499Z,31.31
2022-09-02T03:54:22.003Z,31.63
2022-09-02T03:56:48.744Z,31.34
2022-09-02T03:59:15.253Z,31.75
2022-09-02T04:01:42.132Z,31.68
2022-09-02T04:04:08.646Z,31.38
2022-09-02T04:06:35.250Z,31.84
2022-09-02T04:09:02.809Z,31.57
2022-09-02T04:11:29.482Z,31.68
2022-09-02T04:13:56.462Z,31.31
2022-09-02T04:16:31.451Z,31.49
2022-09-02T04:18:59.785Z,31.14
2022-09-02T04:21:26.775Z,31.14
2022-09-02T04:23:53.386Z,30.81
2022-09-02T04:26:21.184Z,30.93
2022-09-02T04:28:49.443Z,31.18
2022-09-02T04:31:19.113Z,31.12
2022-09-02T04:33:46.122Z,30.73
2022-09-02T04:36:15.377Z,31.25
2022-09-02T04:38:42.178Z,31.06
2022-09-02T04:41:16.358Z,31.22
2022-09-02T04:43:44.866Z,31.01
2022-09-02T04:46:13.856Z,31.12
2022-09-02T04:48:43.826Z,31.17
2022-09-02T04:51:14.504Z,31.82
2022-09-02T04:53:42.019Z,31.79
2022-09-02T04:56:10.452Z,32.14
2022-09-02T04:58:38.139Z,31.96
2022-09-02T05:01:18.412Z,31.86
2022-09-02T05:03:45.868Z,32.44
2022-09-02T05:06:15.763Z,32.00
2022-09-02T05:08:42.799Z,31.88
2022-09-02T05:11:18.443Z,31.99
2022-09-02T05:13:48.790Z,31.89
2022-09-02T05:16:16.718Z,32.19
2022-09-02T05:18:43.234Z,31.86
2022-09-02T05:21:09.847Z,32.26
2022-09-02T05:23:36.432Z,32.47
2022-09-02T05:26:07.262Z,32.59
2022-09-02T05:28:34.829Z,33.26
2022-09-02T05:31:10.947Z,33.05
2022-09-02T05:33:40.846Z,33.02
2022-09-02T05:36:12.438Z,33.02
2022-09-02T05:38:40.136Z,33.69
2022-09-02T05:41:12.099Z,33.71
2022-09-02T05:43:39.584Z,33.34
2022-09-02T05:46:10.993Z,33.85
2022-09-02T05:48:57.135Z,33.64
2022-09-02T05:51:24.510Z,33.73
2022-09-02T05:53:55.562Z,33.73
2022-09-02T05:56:22.667Z,33.26
2022-09-02T05:58:49.842Z,33.19
2022-09-02T06:01:18.670Z,33.25
2022-09-02T06:03:45.298Z,33.47
2022-09-02T06:06:12.259Z,33.16
2022-09-02T06:08:39.673Z,33.18
2022-09-02T06:11:09.329Z,33.62
2022-09-02T06:13:38.693Z,33.17
2022-09-02T06:16:06.349Z,33.65
2022-09-02T06:18:33.366Z,33.49
2022-09-02T06:20:59.895Z,33.47
2022-09-02T06:23:26.852Z,33.31
2022-09-02T06:25:53.319Z,33.46
2022-09-02T06:28:19.907Z,33.16
2022-09-02T06:30:48.499Z,33.61
2022-09-02T06:33:15.111Z,33.13
2022-09-02T06:35:44.585Z,33.59
2022-09-02T06:38:12.167Z,33.50
2022-09-02T06:40:47.432Z,33.40
2022-09-02T06:43:14.037Z,33.20
2022-09-02T06:45:41.554Z,33.39
2022-09-02T06:48:08.727Z,33.14
2022-09-02T06:50:40.089Z,33.62
2022-09-02T06:53:08.089Z,33.38
2022-09-02T06:55:38.673Z,33.67
2022-09-02T06:58:05.879Z,33.39
2022-09-02T07:00:32.770Z,33.67
2022-09-02T07:03:17.938Z,33.90
2022-09-02T07:05:44.436Z,33.70
2022-09-02T07:08:10.917Z,33.37
2022-09-02T07:10:41.151Z,33.85
2022-09-02T07:13:09.039Z,33.74
2022-09-02T07:15:35.884Z,33.82
2022-09-02T07:18:03.826Z,33.76
2022-09-02T07:20:32.918Z,33.57
2022-09-02T07:22:59.406Z,33.84
2022-09-02T07:25:26.290Z,33.88
2022-09-02T07:27:53.075Z,33.70
2022-09-02T07:30:19.659Z,33.71
2022-09-02T07:32:47.599Z,34.17
2022-09-02T07:35:14.141Z,33.87
2022-09-02T07:37:41.116Z,34.21
2022-09-02T07:40:11.143Z,34.43
2022-09-02T07:42:38.200Z,34.08
2022-09-02T07:45:04.894Z,34.01
2022-09-02T07:47:31.633Z,34.27
2022-09-02T07:52:44.600Z,34.10
2022-09-02T07:55:14.666Z,34.43
2022-09-02T07:57:41.651Z,34.33
2022-09-02T08:00:08.805Z,34.12
2022-09-02T08:02:35.307Z,34.29
2022-09-02T08:05:02.519Z,34.16
2022-09-02T08:07:29.030Z,33.84
2022-09-02T08:09:55.565Z,34.21
2022-09-02T08:12:22.565Z,33.91
2022-09-02T08:14:49.357Z,33.65
2022-09-02T08:17:15.865Z,33.85
2022-09-02T08:19:45.103Z,33.71
2022-09-02T08:22:11.571Z,33.55
2022-09-02T08:24:38.042Z,33.40
2022-09-02T08:27:04.759Z,33.39
2022-09-02T08:29:31.777Z,33.65
2022-09-02T08:31:58.302Z,33.21
2022-09-02T08:34:24.772Z,33.35
2022-09-02T08:36:56.505Z,33.03
2022-09-02T08:42:24.834Z,32.93
2022-09-02T08:44:55.771Z,33.23
2022-09-02T08:47:29.661Z,33.08
2022-09-02T08:50:03.226Z,33.26
2022-09-02T08:52:39.299Z,33.02
2022-09-02T08:55:07.597Z,33.29
2022-09-02T08:57:35.327Z,33.23
2022-09-02T09:00:10.518Z,33.21
2022-09-02T09:03:00.891Z,32.90
2022-09-02T09:05:40.844Z,33.28
2022-09-02T09:08:09.643Z,33.22
2022-09-02T09:11:20.917Z,33.30
2022-09-02T09:14:07.578Z,32.98
2022-09-02T09:16:47.936Z,32.78
2022-09-02T09:19:33.752Z,32.38
2022-09-02T09:22:03.312Z,32.44
2022-09-02T09:24:38.097Z,32.64
2022-09-02T09:27:12.029Z,32.67
2022-09-02T09:29:38.525Z,32.79
2022-09-02T09:32:33.549Z,32.85
2022-09-02T09:35:12.272Z,32.52
2022-09-02T09:37:48.075Z,32.47
2022-09-02T09:40:21.743Z,32.22
2022-09-02T09:43:05.626Z,32.55
2022-09-02T09:45:44.053Z,32.08
2022-09-02T09:48:13.514Z,32.20
2022-09-02T09:50:40.062Z,31.97
2022-09-02T09:53:21.373Z,32.09
2022-09-02T09:55:58.415Z,32.28
2022-09-02T09:58:42.320Z,32.58
2022-09-02T10:01:15.007Z,32.68
2022-09-02T10:03:48.667Z,32.61
2022-09-02T10:06:44.563Z,32.65
2022-09-02T10:09:14.270Z,32.08
2022-09-02T10:12:02.121Z,32.52
2022-09-02T10:14:34.447Z,31.95
2022-09-02T10:17:15.434Z,32.24
2022-09-02T10:19:55.095Z,32.12
2022-09-02T10:22:37.651Z,32.33
2022-09-02T10:25:38.695Z,32.11
2022-09-02T10:28:34.708Z,32.46
2022-09-02T10:31:33.602Z,32.32
2022-09-02T10:34:15.598Z,32.35
2022-09-02T10:36:54.479Z,32.52
2022-09-02T10:39:43.887Z,32.43
2022-09-02T10:42:24.247Z,32.51
2022-09-02T10:45:13.436Z,32.33
2022-09-02T10:47:40.488Z,32.51
2022-09-02T10:50:29.637Z,32.30
2022-09-02T10:53:29.888Z,32.31
2022-09-02T10:56:03.837Z,32.25
2022-09-02T10:58:48.974Z,32.37
2022-09-02T11:01:29.175Z,32.30
2022-09-02T11:04:01.663Z,32.53
2022-09-02T11:06:51.809Z,32.18
2022-09-02T11:12:00.102Z,32.37
2022-09-02T11:14:35.042Z,32.39
2022-09-02T11:17:30.885Z,32.11
2022-09-02T11:20:22.555Z,32.35
2022-09-02T11:23:01.636Z,32.38
2022-09-02T11:25:38.622Z,32.34
2022-09-02T11:28:10.674Z,32.22
2022-09-02T11:33:23.397Z,32.19
2022-09-02T11:35:50.908Z,31.83
2022-09-02T11:38:31.248Z,31.75
2022-09-02T11:43:53.241Z,31.84
2022-09-02T11:46:38.517Z,32.35
2022-09-02T11:49:36.101Z,31.89
2022-09-02T11:52:18.717Z,31.89
2022-09-02T11:54:49.138Z,31.75
2022-09-02T11:57:22.603Z,31.60
2022-09-02T11:59:52.018Z,31.92
2022-09-02T12:02:50.318Z,31.78
2022-09-02T12:05:35.184Z,31.38
2022-09-02T12:08:11.807Z,31.46
2022-09-02T12:10:42.518Z,31.30
2022-09-02T12:13:34.111Z,31.36
2022-09-02T12:16:12.993Z,31.65
2022-09-02T12:18:43.273Z,31.15
2022-09-02T12:21:18.321Z,31.18
2022-09-02T12:23:49.678Z,31.51
2022-09-02T12:26:18.594Z,31.58
2022-09-02T12:28:46.838Z,31.24
2022-09-02T12:31:35.134Z,31.36
2022-09-02T12:34:02.736Z,31.52
2022-09-02T12:36:53.666Z,31.18
2022-09-02T12:39:23.127Z,31.44
2022-09-02T12:42:08.764Z,31.46
2022-09-02T12:44:39.394Z,31.48
2022-09-02T12:47:12.871Z,31.33
2022-09-02T12:50:01.013Z,31.43
2022-09-02T12:52:43.714Z,31.28
2022-09-02T12:55:13.189Z,31.69
2022-09-02T12:57:42.704Z,31.30
2022-09-02T13:00:48.443Z,31.48
2022-09-02T13:03:14.944Z,31.43
2022-09-02T13:05:53.347Z,31.14
2022-09-02T13:08:44.887Z,31.36
2022-09-02T13:11:37.216Z,31.03
2022-09-02T13:14:42.491Z,31.12
2022-09-02T13:17:46.632Z,31.24
2022-09-02T13:20:43.906Z,31.10
2022-09-02T13:23:18.426Z,30.81
2022-09-02T13:26:03.355Z,30.86
2022-09-02T13:28:45.979Z,30.97
2022-09-02T13:31:28.141Z,31.02
2022-09-02T13:34:14.439Z,31.15
2022-09-02T13:36:43.652Z,31.09
2022-09-02T13:39:24.030Z,31.12
2022-09-02T13:41:50.761Z,31.23
2022-09-02T13:44:24.502Z,30.99
2022-09-02T13:47:12.957Z,31.08
2022-09-02T13:49:45.721Z,30.82
2022-09-02T13:52:19.818Z,31.02
2022-09-02T13:54:52.850Z,31.01
2022-09-02T13:57:25.896Z,30.98
2022-09-02T13:59:56.070Z,30.79
2022-09-02T14:02:31.674Z,30.67
2022-09-02T14:05:32.100Z,30.88
2022-09-02T14:08:03.038Z,30.77
2022-09-02T14:10:31.373Z,30.72
2022-09-02T14:12:58.571Z,30.88
2022-09-02T14:15:30.812Z,30.79
2022-09-02T14:18:26.844Z,30.91
2022-09-02T14:21:00.887Z,30.45
2022-09-02T14:23:31.075Z,30.91
2022-09-02T14:26:00.156Z,30.93
2022-09-02T14:28:29.429Z,30.59
2022-09-02T14:30:57.821Z,30.40
2022-09-02T14:33:36.394Z,30.78
2022-09-02T14:36:05.129Z,30.49
2022-09-02T14:39:14.824Z,30.71
2022-09-02T14:41:50.198Z,30.41
2022-09-02T14:44:22.777Z,30.36
2022-09-02T14:46:55.799Z,30.69
2022-09-02T14:49:31.194Z,30.44
2022-09-02T14:51:59.735Z,30.40
2022-09-02T14:54:39.912Z,30.28
2022-09-02T14:57:19.355Z,30.12
2022-09-02T14:59:46.004Z,29.67
2022-09-02T15:02:27.428Z,29.69
2022-09-02T15:04:54.926Z,29.52
2022-09-02T15:07:21.934Z,29.20
2022-09-02T15:09:51.360Z,30.15
2022-09-02T15:12:24.471Z,29.34
2022-09-02T15:14:52.067Z,29.24
2022-09-02T15:17:20.041Z,29.46
2022-09-02T15:19:47.056Z,29.56
2022-09-02T15:22:14.284Z,29.47
2022-09-02T15:24:43.552Z,29.81
2022-09-02T15:27:11.867Z,29.42
2022-09-02T15:29:38.567Z,29.86
2022-09-02T15:32:05.926Z,29.97
2022-09-02T15:34:34.511Z,29.99
2022-09-02T15:37:01.961Z,30.23
2022-09-02T15:39:28.534Z,30.20
2022-09-02T15:41:58.714Z,29.99
2022-09-02T15:44:26.291Z,30.06
2022-09-02T15:46:53.984Z,30.45
2022-09-02T15:49:22.235Z,30.11
2022-09-02T15:51:49.832Z,30.05
2022-09-02T15:54:18.885Z,30.28
2022-09-02T15:56:47.089Z,30.22
2022-09-02T15:59:15.208Z,30.18
2022-09-02T16:01:47.717Z,30.24
2022-09-02T16:04:15.354Z,30.12
2022-09-02T16:06:48.251Z,30.30
2022-09-02T16:09:16.593Z,30.20
2022-09-02T16:11:46.676Z,29.79
2022-09-02T16:14:14.927Z,30.25
2022-09-02T16:16:47.466Z,30.30
2022-09-02T16:19:14.307Z,30.49
2022-09-02T16:21:43.373Z,30.40
2022-09-02T16:24:10.261Z,30.41
2022-09-02T16:26:38.489Z,30.56
2022-09-02T16:29:10.652Z,30.58
2022-09-02T16:31:38.803Z,30.81
2022-09-02T16:34:10.581Z,30.51
2022-09-02T16:36:40.160Z,30.44
2022-09-02T16:39:07.486Z,30.48
2022-09-02T16:41:43.936Z,30.41
2022-09-02T16:44:13.568Z,30.54
2022-09-02T16:46:42.870Z,30.62
2022-09-02T16:49:11.014Z,30.68
2022-09-02T16:51:40.728Z,30.44
2022-09-02T16:54:09.268Z,30.68
2022-09-02T16:56:44.035Z,30.45
2022-09-02T16:59:12.730Z,30.50
2022-09-02T17:01:40.516Z,30.46
2022-09-02T17:04:08.742Z,30.65
2022-09-02T17:06:41.335Z,30.13
2022-09-02T17:09:09.016Z,28.94
2022-09-02T17:11:39.495Z,28.24
2022-09-02T17:14:16.194Z,27.83
2022-09-02T17:16:48.421Z,27.29
2022-09-02T17:19:21.426Z,27.36
2022-09-02T17:21:53.502Z,26.95
2022-09-02T17:24:24.980Z,26.40
2022-09-02T17:26:55.619Z,26.59
2022-09-02T17:32:10.548Z,26.42
2022-09-02T17:34:37.459Z,26.18
2022-09-02T17:37:05.145Z,26.00
2022-09-02T17:39:33.839Z,25.73
2022-09-02T17:42:00.675Z,25.68
2022-09-02T17:44:35.497Z,25.85
2022-09-02T17:47:05.246Z,25.60
2022-09-02T17:49:36.761Z,25.70
2022-09-02T17:52:07.928Z,25.62
2022-09-02T17:54:36.290Z,25.87
2022-09-02T17:57:20.760Z,26.20
2022-09-02T18:00:06.615Z,26.17
2022-09-02T18:02:35.958Z,26.37
2022-09-02T18:05:18.182Z,26.39
2022-09-02T18:08:03.043Z,26.86
2022-09-02T18:10:35.727Z,26.67
2022-09-02T18:13:06.680Z,27.04
2022-09-02T18:15:45.485Z,27.09
2022-09-02T18:18:16.789Z,26.90
2022-09-02T18:20:48.145Z,27.19
2022-09-02T18:23:32.832Z,27.20
2022-09-02T18:26:30.315Z,27.36
2022-09-02T18:29:16.519Z,27.50
2022-09-02T18:32:05.689Z,27.42
2022-09-02T18:34:45.675Z,27.56
2022-09-02T18:37:49.678Z,27.35
2022-09-02T18:40:47.438Z,27.21
2022-09-02T18:43:25.372Z,27.56
2022-09-02T18:45:58.734Z,27.52
2022-09-02T18:48:36.431Z,27.57
2022-09-02T18:51:40.188Z,27.72
2022-09-02T18:54:18.158Z,27.52
2022-09-02T18:56:52.252Z,27.50
2022-09-02T18:59:31.817Z,27.52
2022-09-02T19:02:03.664Z,27.53
2022-09-02T19:04:34.807Z,27.53
2022-09-02T19:07:20.179Z,27.35
2022-09-02T19:09:47.012Z,27.49
2022-09-02T19:12:14.410Z,27.50
2022-09-02T19:14:41.052Z,27.48
2022-09-02T19:17:09.362Z,27.52
2022-09-02T19:19:35.800Z,27.61
2022-09-02T19:22:04.778Z,27.38
2022-09-02T19:24:35.433Z,28.11
2022-09-02T19:27:05.202Z,27.92
2022-09-02T19:29:34.872Z,27.79
2022-09-02T19:32:02.018Z,27.82
2022-09-02T19:34:34.623Z,27.73
2022-09-02T19:37:03.138Z,27.82
2022-09-02T19:39:29.602Z,27.84
2022-09-02T19:41:56.106Z,27.95
2022-09-02T19:44:22.667Z,28.01
2022-09-02T19:47:42.240Z,28.04
2022-09-02T19:49:36.235Z,28.16
2022-09-02T19:52:02.909Z,28.18
2022-09-02T19:54:30.298Z,27.99
2022-09-02T19:56:56.961Z,28.27
2022-09-02T19:59:23.446Z,28.25
2022-09-02T20:01:50.244Z,28.33
2022-09-02T20:04:16.772Z,28.31
2022-09-02T20:06:43.313Z,28.52
2022-09-02T20:09:09.949Z,28.47
2022-09-02T20:11:41.179Z,28.31
2022-09-02T20:14:07.855Z,28.40
2022-09-02T20:16:34.429Z,28.73
2022-09-02T20:19:00.962Z,28.52
2022-09-02T20:21:31.124Z,28.56
2022-09-02T20:24:09.857Z,28.48
2022-09-02T20:27:05.239Z,28.47
2022-09-02T20:30:09.023Z,28.67
2022-09-02T20:32:54.580Z,28.63
2022-09-02T20:35:39.235Z,28.52
2022-09-02T20:38:27.294Z,28.82
2022-09-02T20:41:23.135Z,28.79
2022-09-02T20:44:07.176Z,28.77
2022-09-02T20:46:59.058Z,28.81
2022-09-02T20:49:47.761Z,28.68
2022-09-02T20:52:31.353Z,28.85
2022-09-02T20:55:11.074Z,28.77
2022-09-02T20:58:22.707Z,28.84
2022-09-02T21:01:08.636Z,28.90
2022-09-02T21:03:51.766Z,29.06
2022-09-02T21:06:22.631Z,28.96
2022-09-02T21:09:36.656Z,29.02
2022-09-02T21:12:21.126Z,28.96
2022-09-02T21:14:51.522Z,28.93
2022-09-02T21:17:33.323Z,29.14
2022-09-02T21:20:19.808Z,29.06
2022-09-02T21:22:50.744Z,29.18
2022-09-02T21:25:28.315Z,28.97
2022-09-02T21:28:18.811Z,29.13
2022-09-02T21:30:50.843Z,28.87
2022-09-02T21:33:17.873Z,29.18
2022-09-02T21:35:47.612Z,29.24
2022-09-02T21:38:24.347Z,29.29
2022-09-02T21:40:57.614Z,29.23
2022-09-02T21:43:42.112Z,29.50
2022-09-02T21:46:40.628Z,29.34
2022-09-02T21:49:32.161Z,29.28
2022-09-02T21:52:18.239Z,29.18
2022-09-02T21:54:59.459Z,29.26
2022-09-02T21:57:54.702Z,29.32
2022-09-02T22:00:22.059Z,29.52
2022-09-02T22:03:13.730Z,29.41
2022-09-02T22:05:49.218Z,29.36
2022-09-02T22:08:44.065Z,29.33
2022-09-02T22:11:21.617Z,29.09
2022-09-02T22:13:48.196Z,29.12
2022-09-02T22:16:23.448Z,29.60
2022-09-02T22:19:00.650Z,29.40
2022-09-02T22:21:48.246Z,29.59
2022-09-02T22:24:37.148Z,29.53
2022-09-02T22:27:25.522Z,29.33
2022-09-02T22:30:13.494Z,29.18
2022-09-02T22:33:14.811Z,29.24
2022-09-02T22:35:51.915Z,29.19
2022-09-02T22:38:33.891Z,29.43
2022-09-02T22:41:20.134Z,29.55
2022-09-02T22:43:53.302Z,29.48
2022-09-02T22:46:56.095Z,29.36
2022-09-02T22:49:41.540Z,29.42
2022-09-02T22:52:51.608Z,29.54
2022-09-02T22:55:49.175Z,29.43
2022-09-02T22:58:48.154Z,29.51
2022-09-02T23:01:20.597Z,29.49
2022-09-02T23:04:14.601Z,29.55
2022-09-02T23:06:41.071Z,29.39
2022-09-02T23:09:11.435Z,29.59
2022-09-02T23:12:02.354Z,29.51
2022-09-02T23:14:50.661Z,29.69
2022-09-02T23:18:05.803Z,29.43
2022-09-02T23:20:39.502Z,29.99
2022-09-02T23:23:44.423Z,29.61
2022-09-02T23:26:25.890Z,29.50
2022-09-02T23:29:35.495Z,29.47
2022-09-02T23:32:26.879Z,29.82
2022-09-02T23:35:08.935Z,29.60
2022-09-02T23:38:02.422Z,29.83
2022-09-02T23:40:51.619Z,29.58
2022-09-02T23:43:19.035Z,29.91
2022-09-02T23:45:46.830Z,29.78
2022-09-02T23:48:35.111Z,29.88
2022-09-02T23:51:20.491Z,29.77
2022-09-02T23:54:15.395Z,29.78
2022-09-02T23:57:00.875Z,29.70
2022-09-02T23:59:42.053Z,29.81
